createdAt,value
2018-09-11T00:00:42.296Z,0.00
2018-09-11T00:01:42.220Z,0.00
2018-09-11T00:02:42.132Z,0.00
2018-09-11T00:03:42.057Z,0.00
2018-09-11T00:04:41.972Z,0.00
2018-09-11T00:05:41.897Z,0.00
2018-09-11T00:06:41.827Z,0.00
2018-09-11T00:07:41.734Z,0.00
2018-09-11T00:08:41.657Z,0.00
2018-09-11T00:09:41.598Z,0.00
2018-09-11T00:10:41.499Z,0.00
2018-09-11T00:11:41.428Z,0.00
2018-09-11T00:12:41.347Z,0.00
2018-09-11T00:13:41.258Z,0.00
2018-09-11T00:14:41.184Z,0.00
2018-09-11T00:15:41.101Z,0.00
2018-09-11T00:16:41.030Z,0.00
2018-09-11T00:17:40.947Z,0.00
2018-09-11T00:18:40.861Z,0.00
2018-09-11T00:19:40.796Z,0.00
2018-09-11T00:20:40.708Z,0.00
2018-09-11T00:21:40.625Z,0.00
2018-09-11T00:22:40.546Z,0.00
2018-09-11T00:23:40.472Z,0.00
2018-09-11T00:24:40.387Z,0.00
2018-09-11T00:25:40.309Z,0.00
2018-09-11T00:26:40.235Z,0.00
2018-09-11T00:27:40.150Z,0.00
2018-09-11T00:28:40.073Z,0.00
2018-09-11T00:29:39.984Z,0.00
2018-09-11T00:30:39.910Z,0.00
2018-09-11T00:31:39.835Z,0.00
2018-09-11T00:32:39.748Z,0.00
2018-09-11T00:33:39.673Z,0.00
2018-09-11T00:34:39.600Z,0.00
2018-09-11T00:35:39.512Z,0.00
2018-09-11T00:36:39.435Z,0.00
2018-09-11T00:37:39.351Z,0.00
2018-09-11T00:38:39.274Z,0.00
2018-09-11T00:39:39.199Z,0.00
2018-09-11T00:40:39.111Z,0.00
2018-09-11T00:41:39.036Z,0.00
2018-09-11T00:42:38.961Z,0.00
2018-09-11T00:43:38.886Z,0.00
2018-09-11T00:44:38.802Z,0.00
2018-09-11T00:45:38.726Z,0.00
2018-09-11T00:46:38.636Z,0.00
2018-09-11T00:47:38.561Z,0.00
2018-09-11T00:48:38.486Z,0.00
2018-09-11T00:49:38.400Z,0.00
2018-09-11T00:50:38.325Z,0.00
2018-09-11T00:51:38.293Z,0.00
2018-09-11T00:52:38.162Z,0.00
2018-09-11T00:53:38.087Z,0.00
2018-09-11T00:54:38.000Z,0.00
2018-09-11T00:55:37.926Z,0.00
2018-09-11T00:56:37.850Z,0.00
2018-09-11T00:57:37.762Z,0.00
2018-09-11T00:58:37.687Z,0.00
2018-09-11T00:59:37.612Z,0.00
2018-09-11T01:00:37.526Z,0.00
2018-09-11T01:01:37.452Z,0.00
2018-09-11T01:02:37.378Z,0.00
2018-09-11T01:03:37.288Z,0.00
2018-09-11T01:04:37.213Z,0.00
2018-09-11T01:05:37.127Z,0.00
2018-09-11T01:06:37.055Z,0.00
2018-09-11T01:07:36.976Z,0.00
2018-09-11T01:08:36.894Z,0.00
2018-09-11T01:09:36.814Z,0.00
2018-09-11T01:10:36.739Z,0.00
2018-09-11T01:11:36.653Z,0.00
2018-09-11T01:12:36.578Z,0.00
2018-09-11T01:13:36.491Z,0.00
2018-09-11T01:14:36.414Z,0.00
2018-09-11T01:15:36.343Z,0.00
2018-09-11T01:16:36.252Z,0.00
2018-09-11T01:17:36.180Z,0.00
2018-09-11T01:18:36.107Z,0.00
2018-09-11T01:19:36.015Z,0.00
2018-09-11T01:20:35.940Z,0.00
2018-09-11T01:21:35.866Z,0.00
2018-09-11T01:22:35.780Z,0.00
2018-09-11T01:23:35.705Z,0.00
2018-09-11T01:24:35.616Z,0.00
2018-09-11T01:25:35.541Z,0.00
2018-09-11T01:26:35.466Z,0.00
2018-09-11T01:27:35.378Z,0.00
2018-09-11T01:28:35.305Z,0.00
2018-09-11T01:29:35.230Z,0.00
2018-09-11T01:30:35.141Z,0.00
2018-09-11T01:31:35.067Z,0.00
2018-09-11T01:32:34.992Z,0.00
2018-09-11T01:33:34.905Z,0.00
2018-09-11T01:34:34.829Z,0.00
2018-09-11T01:35:34.741Z,0.00
2018-09-11T01:36:34.667Z,0.00
2018-09-11T01:37:34.605Z,0.00
2018-09-11T01:38:34.510Z,0.00
2018-09-11T01:39:34.430Z,0.00
2018-09-11T01:40:34.356Z,0.00
2018-09-11T01:41:34.267Z,0.00
2018-09-11T01:42:34.192Z,0.00
2018-09-11T01:43:34.106Z,0.00
2018-09-11T01:44:34.032Z,0.00
2018-09-11T01:45:33.957Z,0.00
2018-09-11T01:46:33.869Z,0.00
2018-09-11T01:47:33.796Z,0.00
2018-09-11T01:48:33.719Z,0.00
2018-09-11T01:49:33.633Z,0.00
2018-09-11T01:50:33.557Z,0.00
2018-09-11T01:51:33.471Z,0.00
2018-09-11T01:52:33.395Z,0.00
2018-09-11T01:53:33.319Z,0.00
2018-09-11T01:54:33.233Z,0.00
2018-09-11T01:55:33.157Z,0.00
2018-09-11T01:56:33.088Z,0.00
2018-09-11T01:57:32.994Z,0.00
2018-09-11T01:58:32.922Z,0.00
2018-09-11T01:59:32.847Z,0.00
2018-09-11T02:00:32.758Z,0.00
2018-09-11T02:01:32.693Z,0.00
2018-09-11T02:02:32.596Z,0.00
2018-09-11T02:03:32.520Z,0.00
2018-09-11T02:04:32.489Z,0.00
2018-09-11T02:05:32.360Z,0.00
2018-09-11T02:06:32.291Z,0.00
2018-09-11T02:07:32.200Z,0.00
2018-09-11T02:08:32.122Z,0.00
2018-09-11T02:09:32.060Z,0.00
2018-09-11T02:10:31.959Z,0.00
2018-09-11T02:11:31.885Z,0.00
2018-09-11T02:12:31.809Z,0.00
2018-09-11T02:13:31.721Z,0.00
2018-09-11T02:14:31.646Z,0.00
2018-09-11T02:15:31.576Z,0.00
2018-09-11T02:16:31.486Z,0.00
2018-09-11T02:17:31.410Z,0.00
2018-09-11T02:18:31.322Z,0.00
2018-09-11T02:19:31.261Z,0.00
2018-09-11T02:20:31.175Z,0.00
2018-09-11T02:21:31.088Z,0.00
2018-09-11T02:22:31.011Z,0.00
2018-09-11T02:23:30.924Z,0.00
2018-09-11T02:24:30.861Z,0.00
2018-09-11T02:25:30.773Z,0.00
2018-09-11T02:26:30.687Z,0.00
2018-09-11T02:27:30.611Z,0.00
2018-09-11T02:28:30.536Z,0.00
2018-09-11T02:29:30.448Z,0.00
2018-09-11T02:30:30.375Z,0.00
2018-09-11T02:31:30.286Z,0.00
2018-09-11T02:32:30.212Z,0.00
2018-09-11T02:33:30.137Z,0.00
2018-09-11T02:34:30.049Z,0.00
2018-09-11T02:35:29.987Z,0.00
2018-09-11T02:36:29.900Z,0.00
2018-09-11T02:37:29.812Z,0.00
2018-09-11T02:38:29.739Z,0.00
2018-09-11T02:39:29.651Z,0.00
2018-09-11T02:40:29.577Z,0.00
2018-09-11T02:41:29.500Z,0.00
2018-09-11T02:42:29.412Z,0.00
2018-09-11T02:43:29.338Z,0.00
2018-09-11T02:44:29.252Z,0.00
2018-09-11T02:45:29.175Z,0.00
2018-09-11T02:46:29.100Z,0.00
2018-09-11T02:47:29.013Z,0.00
2018-09-11T02:48:28.939Z,0.00
2018-09-11T02:49:28.874Z,0.00
2018-09-11T02:50:28.775Z,0.00
2018-09-11T02:51:28.700Z,0.00
2018-09-11T02:52:28.614Z,0.00
2018-09-11T02:53:28.539Z,0.00
2018-09-11T02:54:28.467Z,0.00
2018-09-11T02:55:28.376Z,0.00
2018-09-11T02:56:28.301Z,0.00
2018-09-11T02:57:28.226Z,0.00
2018-09-11T02:58:28.140Z,0.00
2018-09-11T02:59:28.067Z,0.00
2018-09-11T03:00:27.977Z,0.00
2018-09-11T03:01:27.903Z,0.00
2018-09-11T03:02:27.827Z,0.00
2018-09-11T03:03:27.740Z,0.00
2018-09-11T03:04:27.675Z,0.00
2018-09-11T03:05:27.590Z,0.00
2018-09-11T03:06:27.502Z,0.00
2018-09-11T03:07:27.427Z,0.00
2018-09-11T03:08:27.341Z,0.00
2018-09-11T03:09:27.266Z,0.00
2018-09-11T03:10:27.190Z,0.00
2018-09-11T03:11:27.102Z,0.00
2018-09-11T03:12:27.027Z,0.00
2018-09-11T03:13:26.956Z,0.00
2018-09-11T03:14:26.870Z,0.00
2018-09-11T03:15:26.796Z,0.00
2018-09-11T03:16:26.703Z,0.00
2018-09-11T03:17:26.627Z,0.00
2018-09-11T03:18:26.553Z,0.00
2018-09-11T03:19:26.467Z,0.00
2018-09-11T03:20:26.392Z,0.00
2018-09-11T03:21:26.316Z,0.00
2018-09-11T03:22:26.229Z,0.00
2018-09-11T03:23:26.153Z,0.00
2018-09-11T03:24:26.067Z,0.00
2018-09-11T03:25:25.993Z,0.00
2018-09-11T03:26:25.918Z,0.00
2018-09-11T03:27:25.828Z,0.00
2018-09-11T03:28:25.755Z,0.00
2018-09-11T03:29:25.668Z,0.00
2018-09-11T03:30:25.593Z,0.00
2018-09-11T03:31:25.518Z,0.00
2018-09-11T03:32:25.430Z,0.00
2018-09-11T03:33:25.355Z,0.00
2018-09-11T03:34:25.291Z,0.00
2018-09-11T03:35:25.194Z,0.00
2018-09-11T03:36:25.118Z,0.00
2018-09-11T03:37:25.031Z,0.00
2018-09-11T03:38:24.955Z,0.00
2018-09-11T03:39:24.880Z,0.00
2018-09-11T03:40:24.796Z,0.00
2018-09-11T03:41:24.719Z,0.00
2018-09-11T03:42:24.644Z,0.00
2018-09-11T03:43:24.556Z,0.00
2018-09-11T03:44:24.481Z,0.00
2018-09-11T03:45:24.395Z,0.00
2018-09-11T03:46:24.320Z,0.00
2018-09-11T03:47:24.245Z,0.00
2018-09-11T03:48:24.157Z,0.00
2018-09-11T03:49:24.082Z,0.00
2018-09-11T03:50:24.007Z,0.00
2018-09-11T03:51:23.920Z,0.00
2018-09-11T03:52:23.846Z,0.00
2018-09-11T03:53:23.757Z,0.00
2018-09-11T03:54:23.685Z,0.00
2018-09-11T03:55:23.609Z,0.00
2018-09-11T03:56:23.520Z,0.00
2018-09-11T03:57:23.448Z,0.00
2018-09-11T03:58:23.359Z,0.00
2018-09-11T03:59:23.310Z,0.00
2018-09-11T04:00:23.209Z,0.00
2018-09-11T04:01:23.122Z,0.00
2018-09-11T04:02:23.046Z,0.00
2018-09-11T04:03:22.960Z,0.00
2018-09-11T04:04:22.897Z,0.00
2018-09-11T04:05:22.824Z,0.00
2018-09-11T04:06:22.725Z,0.00
2018-09-11T04:07:22.647Z,0.00
2018-09-11T04:08:22.575Z,4.00
2018-09-11T04:09:22.485Z,4.00
2018-09-11T04:10:22.408Z,4.00
2018-09-11T04:11:22.323Z,4.00
2018-09-11T04:12:22.248Z,4.00
2018-09-11T04:13:22.173Z,4.00
2018-09-11T04:14:22.084Z,8.00
2018-09-11T04:15:22.010Z,4.00
2018-09-11T04:16:21.937Z,8.00
2018-09-11T04:17:21.848Z,12.00
2018-09-11T04:18:21.773Z,8.00
2018-09-11T04:19:21.698Z,12.00
2018-09-11T04:20:21.610Z,12.00
2018-09-11T04:21:21.535Z,16.00
2018-09-11T04:22:21.450Z,20.00
2018-09-11T04:23:21.373Z,20.00
2018-09-11T04:24:21.286Z,24.00
2018-09-11T04:25:21.210Z,28.00
2018-09-11T04:26:21.135Z,28.00
2018-09-11T04:27:21.058Z,36.00
2018-09-11T04:28:20.976Z,36.00
2018-09-11T04:29:20.887Z,40.00
2018-09-11T04:30:20.823Z,44.00
2018-09-11T04:31:20.736Z,52.00
2018-09-11T04:32:20.650Z,56.00
2018-09-11T04:33:20.575Z,64.00
2018-09-11T04:34:20.499Z,68.00
2018-09-11T04:35:20.417Z,76.00
2018-09-11T04:36:20.391Z,80.00
2018-09-11T04:37:20.252Z,88.00
2018-09-11T04:38:20.183Z,92.00
2018-09-11T04:39:20.100Z,100.00
2018-09-11T04:40:20.016Z,108.00
2018-09-11T04:41:19.937Z,116.00
2018-09-11T04:42:19.851Z,132.00
2018-09-11T04:43:19.775Z,148.00
2018-09-11T04:44:19.701Z,164.00
2018-09-11T04:45:19.614Z,180.00
2018-09-11T04:46:19.538Z,192.00
2018-09-11T04:47:19.451Z,200.00
2018-09-11T04:48:19.379Z,212.00
2018-09-11T04:49:19.302Z,232.00
2018-09-11T04:50:19.226Z,256.00
2018-09-11T04:51:19.137Z,272.00
2018-09-11T04:52:19.055Z,288.00
2018-09-11T04:53:18.976Z,308.00
2018-09-11T04:54:18.901Z,328.00
2018-09-11T04:55:18.828Z,360.00
2018-09-11T04:56:18.738Z,396.00
2018-09-11T04:57:18.652Z,412.00
2018-09-11T04:58:18.576Z,424.00
2018-09-11T04:59:18.490Z,468.00
2018-09-11T05:00:18.427Z,512.00
2018-09-11T05:01:18.339Z,524.00
2018-09-11T05:02:18.252Z,516.00
2018-09-11T05:03:18.178Z,548.00
2018-09-11T05:04:18.094Z,584.00
2018-09-11T05:05:18.027Z,604.00
2018-09-11T05:06:17.940Z,632.00
2018-09-11T05:07:17.856Z,680.00
2018-09-11T05:08:17.781Z,720.00
2018-09-11T05:09:17.690Z,724.00
2018-09-11T05:10:17.616Z,732.00
2018-09-11T05:11:17.543Z,732.00
2018-09-11T05:12:17.461Z,720.00
2018-09-11T05:13:17.378Z,764.00
2018-09-11T05:14:17.291Z,840.00
2018-09-11T05:15:17.216Z,900.00
2018-09-11T05:16:17.140Z,912.00
2018-09-11T05:17:17.054Z,920.00
2018-09-11T05:18:16.979Z,908.00
2018-09-11T05:19:16.978Z,904.00
2018-09-11T05:20:16.817Z,904.00
2018-09-11T05:21:16.741Z,900.00
2018-09-11T05:22:16.655Z,884.00
2018-09-11T05:23:16.584Z,880.00
2018-09-11T05:24:16.492Z,904.00
2018-09-11T05:25:16.417Z,936.00
2018-09-11T05:26:16.331Z,944.00
2018-09-11T05:27:16.285Z,972.00
2018-09-11T05:28:16.180Z,988.00
2018-09-11T05:29:16.099Z,984.00
2018-09-11T05:30:16.018Z,996.00
2018-09-11T05:31:15.931Z,1044.00
2018-09-11T05:32:15.864Z,1088.00
2018-09-11T05:33:15.781Z,1132.00
2018-09-11T05:34:15.693Z,1152.00
2018-09-11T05:35:15.618Z,1184.00
2018-09-11T05:36:15.531Z,1212.00
2018-09-11T05:37:15.457Z,1244.00
2018-09-11T05:38:15.382Z,1216.00
2018-09-11T05:39:15.307Z,1192.00
2018-09-11T05:40:15.240Z,1248.00
2018-09-11T05:41:15.133Z,1356.00
2018-09-11T05:42:15.057Z,1468.00
2018-09-11T05:43:14.973Z,1504.00
2018-09-11T05:44:14.907Z,1512.00
2018-09-11T05:45:14.819Z,1548.00
2018-09-11T05:46:14.734Z,1656.00
2018-09-11T05:47:14.727Z,1828.00
2018-09-11T05:48:14.572Z,2012.00
2018-09-11T05:49:14.494Z,2172.00
2018-09-11T05:50:14.419Z,2308.00
2018-09-11T05:51:14.336Z,2464.00
2018-09-11T05:52:14.258Z,2620.00
2018-09-11T05:53:14.171Z,2672.00
2018-09-11T05:54:14.095Z,2616.00
2018-09-11T05:55:14.022Z,2604.00
2018-09-11T05:56:13.938Z,2664.00
2018-09-11T05:57:13.861Z,2720.00
2018-09-11T05:58:13.837Z,2788.00
2018-09-11T05:59:13.695Z,2836.00
2018-09-11T06:00:13.622Z,2868.00
2018-09-11T06:01:13.535Z,2828.00
2018-09-11T06:02:13.459Z,2836.00
2018-09-11T06:03:13.372Z,2940.00
2018-09-11T06:04:13.296Z,3036.00
2018-09-11T06:05:13.221Z,3160.00
2018-09-11T06:06:13.135Z,3312.00
2018-09-11T06:07:13.060Z,3360.00
2018-09-11T06:08:12.973Z,3300.00
2018-09-11T06:09:12.896Z,3184.00
2018-09-11T06:10:12.821Z,3028.00
2018-09-11T06:11:12.740Z,3000.00
2018-09-11T06:12:12.660Z,3028.00
2018-09-11T06:13:12.589Z,3040.00
2018-09-11T06:14:12.496Z,3068.00
2018-09-11T06:15:12.422Z,3188.00
2018-09-11T06:16:12.339Z,3308.00
2018-09-11T06:17:12.260Z,3364.00
2018-09-11T06:18:12.189Z,3496.00
2018-09-11T06:19:12.102Z,3676.00
2018-09-11T06:20:12.022Z,3844.00
2018-09-11T06:21:11.961Z,4036.00
2018-09-11T06:22:11.865Z,4348.00
2018-09-11T06:23:11.792Z,4676.00
2018-09-11T06:24:11.711Z,4828.00
2018-09-11T06:25:11.623Z,4768.00
2018-09-11T06:26:11.562Z,4640.00
2018-09-11T06:27:11.462Z,4444.00
2018-09-11T06:28:11.389Z,4212.00
2018-09-11T06:29:11.332Z,4012.00
2018-09-11T06:30:11.226Z,3972.00
2018-09-11T06:31:11.148Z,4056.00
2018-09-11T06:32:11.074Z,4112.00
2018-09-11T06:33:11.012Z,4152.00
2018-09-11T06:34:10.912Z,4240.00
2018-09-11T06:35:10.839Z,4368.00
2018-09-11T06:36:10.750Z,4432.00
2018-09-11T06:37:10.675Z,4420.00
2018-09-11T06:38:10.600Z,4372.00
2018-09-11T06:39:10.513Z,4412.00
2018-09-11T06:40:10.439Z,4628.00
2018-09-11T06:41:10.384Z,4708.00
2018-09-11T06:42:10.276Z,4612.00
2018-09-11T06:43:10.200Z,4320.00
2018-09-11T06:44:10.125Z,4096.00
2018-09-11T06:45:10.041Z,4188.00
2018-09-11T06:46:09.967Z,4352.00
2018-09-11T06:47:09.906Z,4460.00
2018-09-11T06:48:09.802Z,4564.00
2018-09-11T06:49:09.726Z,4696.00
2018-09-11T06:50:09.651Z,4940.00
2018-09-11T06:51:09.575Z,5160.00
2018-09-11T06:52:09.489Z,5264.00
2018-09-11T06:53:09.415Z,5268.00
2018-09-11T06:54:09.339Z,5460.00
2018-09-11T06:55:09.262Z,5836.00
2018-09-11T06:56:09.177Z,5464.00
2018-09-11T06:57:09.102Z,5156.00
2018-09-11T06:58:09.016Z,5312.00
2018-09-11T06:59:08.998Z,5656.00
2018-09-11T07:00:08.865Z,5836.00
2018-09-11T07:01:08.777Z,5552.00
2018-09-11T07:02:08.702Z,5644.00
2018-09-11T07:03:08.627Z,5972.00
2018-09-11T07:04:08.540Z,6364.00
2018-09-11T07:05:08.465Z,6424.00
2018-09-11T07:06:08.395Z,6636.00
2018-09-11T07:07:08.316Z,7152.00
2018-09-11T07:08:08.228Z,7644.00
2018-09-11T07:09:08.153Z,7712.00
2018-09-11T07:10:08.078Z,7384.00
2018-09-11T07:11:08.001Z,7316.00
2018-09-11T07:12:07.916Z,6908.00
2018-09-11T07:13:07.841Z,6128.00
2018-09-11T07:14:07.767Z,5736.00
2018-09-11T07:15:07.678Z,6104.00
2018-09-11T07:16:07.605Z,7020.00
2018-09-11T07:17:07.528Z,7612.00
2018-09-11T07:18:07.453Z,8388.00
2018-09-11T07:19:07.367Z,8408.00
2018-09-11T07:20:07.476Z,8296.00
2018-09-11T07:21:07.217Z,7628.00
2018-09-11T07:22:07.130Z,6984.00
2018-09-11T07:23:07.055Z,6948.00
2018-09-11T07:24:06.980Z,6896.00
2018-09-11T07:25:06.909Z,6756.00
2018-09-11T07:26:06.870Z,6888.00
2018-09-11T07:27:06.745Z,7720.00
2018-09-11T07:28:06.668Z,7916.00
2018-09-11T07:29:06.593Z,6536.00
2018-09-11T07:30:06.507Z,6500.00
2018-09-11T07:31:06.443Z,6272.00
2018-09-11T07:32:06.355Z,5940.00
2018-09-11T07:33:06.281Z,5816.00
2018-09-11T07:34:06.206Z,5820.00
2018-09-11T07:35:06.120Z,6468.00
2018-09-11T07:36:06.044Z,5988.00
2018-09-11T07:37:05.970Z,6316.00
2018-09-11T07:38:05.894Z,6616.00
2018-09-11T07:39:05.810Z,6680.00
2018-09-11T07:40:05.757Z,6664.00
2018-09-11T07:41:05.656Z,6916.00
2018-09-11T07:42:05.581Z,7128.00
2018-09-11T07:43:05.507Z,7012.00
2018-09-11T07:44:05.432Z,7276.00
2018-09-11T07:45:05.358Z,7228.00
2018-09-11T07:46:05.271Z,6880.00
2018-09-11T07:47:05.196Z,7092.00
2018-09-11T07:48:05.121Z,7236.00
2018-09-11T07:49:05.045Z,6864.00
2018-09-11T07:50:04.971Z,7588.00
2018-09-11T07:51:04.897Z,7728.00
2018-09-11T07:52:04.821Z,7804.00
2018-09-11T07:53:04.749Z,7724.00
2018-09-11T07:54:04.674Z,7672.00
2018-09-11T07:55:04.596Z,8040.00
2018-09-11T07:56:04.522Z,8264.00
2018-09-11T07:57:04.447Z,8396.00
2018-09-11T07:58:04.432Z,8472.00
2018-09-11T07:59:04.298Z,9044.00
2018-09-11T08:00:04.222Z,9008.00
2018-09-11T08:01:04.147Z,8936.00
2018-09-11T08:02:04.073Z,9152.00
2018-09-11T08:03:04.010Z,8904.00
2018-09-11T08:04:03.925Z,8080.00
2018-09-11T08:05:03.872Z,7144.00
2018-09-11T08:06:03.785Z,6376.00
2018-09-11T08:07:03.710Z,5632.00
2018-09-11T08:08:03.635Z,4840.00
2018-09-11T08:09:03.581Z,5872.00
2018-09-11T08:10:03.485Z,8108.00
2018-09-11T08:11:03.410Z,8076.00
2018-09-11T08:12:03.385Z,8204.00
2018-09-11T08:13:03.260Z,7840.00
2018-09-11T08:14:03.189Z,7760.00
2018-09-11T08:15:03.128Z,7792.00
2018-09-11T08:16:03.048Z,7948.00
2018-09-11T08:17:02.974Z,7564.00
2018-09-11T08:18:02.899Z,7708.00
2018-09-11T08:19:02.824Z,7752.00
2018-09-11T08:20:02.751Z,7508.00
2018-09-11T08:21:02.677Z,7648.00
2018-09-11T08:22:02.613Z,7632.00
2018-09-11T08:23:02.536Z,7328.00
2018-09-11T08:24:02.461Z,7128.00
2018-09-11T08:25:02.387Z,7496.00
2018-09-11T08:26:02.326Z,7352.00
2018-09-11T08:27:02.237Z,8384.00
2018-09-11T08:28:02.164Z,8624.00
2018-09-11T08:29:02.100Z,8024.00
2018-09-11T08:30:02.027Z,8356.00
2018-09-11T08:31:01.952Z,8000.00
2018-09-11T08:32:01.875Z,7968.00
2018-09-11T08:33:01.801Z,10064.00
2018-09-11T08:34:01.728Z,10376.00
2018-09-11T08:35:01.663Z,11000.00
2018-09-11T08:36:01.588Z,11468.00
2018-09-11T08:37:01.514Z,8384.00
2018-09-11T08:38:01.439Z,8048.00
2018-09-11T08:39:01.363Z,8200.00
2018-09-11T08:40:01.303Z,8944.00
2018-09-11T08:41:01.303Z,9116.00
2018-09-11T08:42:01.153Z,8784.00
2018-09-11T08:43:01.077Z,7960.00
2018-09-11T08:44:01.014Z,7960.00
2018-09-11T08:45:00.952Z,5292.00
2018-09-11T08:46:00.864Z,8260.00
2018-09-11T08:47:00.796Z,8224.00
2018-09-11T08:48:00.719Z,8444.00
2018-09-11T08:49:00.655Z,5572.00
2018-09-11T08:50:00.579Z,8972.00
2018-09-11T08:51:00.517Z,9608.00
2018-09-11T08:52:00.455Z,10128.00
2018-09-11T08:53:00.365Z,10720.00
2018-09-11T08:54:00.290Z,10472.00
2018-09-11T08:55:00.215Z,10648.00
2018-09-11T08:56:00.142Z,10520.00
2018-09-11T08:57:00.079Z,10020.00
2018-09-11T08:58:00.004Z,9196.00
2018-09-11T08:58:59.928Z,9248.00
2018-09-11T08:59:59.856Z,8944.00
2018-09-11T09:00:59.791Z,8500.00
2018-09-11T09:01:59.716Z,8032.00
2018-09-11T09:02:59.641Z,7948.00
2018-09-11T09:03:59.579Z,7928.00
2018-09-11T09:04:59.504Z,7888.00
2018-09-11T09:05:59.431Z,8520.00
2018-09-11T09:06:59.355Z,8960.00
2018-09-11T09:07:59.307Z,8604.00
2018-09-11T09:08:59.217Z,8200.00
2018-09-11T09:09:59.166Z,8356.00
2018-09-11T09:10:59.067Z,8628.00
2018-09-11T09:11:58.993Z,8736.00
2018-09-11T09:12:58.932Z,8900.00
2018-09-11T09:13:58.858Z,9140.00
2018-09-11T09:14:58.781Z,8848.00
2018-09-11T09:15:58.706Z,8868.00
2018-09-11T09:16:58.643Z,8608.00
2018-09-11T09:17:58.568Z,8312.00
2018-09-11T09:18:58.497Z,7728.00
2018-09-11T09:19:58.418Z,7720.00
2018-09-11T09:20:58.406Z,7712.00
2018-09-11T09:21:58.281Z,7668.00
2018-09-11T09:22:58.207Z,8144.00
2018-09-11T09:23:58.132Z,8460.00
2018-09-11T09:24:58.057Z,9276.00
2018-09-11T09:25:57.983Z,10196.00
2018-09-11T09:26:57.919Z,10668.00
2018-09-11T09:27:57.844Z,11220.00
2018-09-11T09:28:57.769Z,12072.00
2018-09-11T09:29:57.694Z,13024.00
2018-09-11T09:30:57.619Z,13396.00
2018-09-11T09:31:57.548Z,13444.00
2018-09-11T09:32:57.471Z,13124.00
2018-09-11T09:33:57.408Z,13228.00
2018-09-11T09:34:57.333Z,13872.00
2018-09-11T09:35:57.259Z,13928.00
2018-09-11T09:36:57.248Z,13940.00
2018-09-11T09:37:57.108Z,13864.00
2018-09-11T09:38:57.034Z,13520.00
2018-09-11T09:39:56.958Z,13336.00
2018-09-11T09:40:56.908Z,13412.00
2018-09-11T09:41:56.823Z,13332.00
2018-09-11T09:42:56.745Z,13080.00
2018-09-11T09:43:56.696Z,12780.00
2018-09-11T09:44:56.612Z,12608.00
2018-09-11T09:45:56.521Z,12580.00
2018-09-11T09:46:56.445Z,12724.00
2018-09-11T09:47:56.371Z,12980.00
2018-09-11T09:48:56.309Z,13428.00
2018-09-11T09:49:56.239Z,13692.00
2018-09-11T09:50:56.278Z,13832.00
2018-09-11T09:51:56.085Z,13712.00
2018-09-11T09:52:56.009Z,13064.00
2018-09-11T09:53:55.936Z,12424.00
2018-09-11T09:54:55.860Z,11988.00
2018-09-11T09:55:55.787Z,11900.00
2018-09-11T09:56:55.710Z,11760.00
2018-09-11T09:57:55.635Z,11392.00
2018-09-11T09:58:55.561Z,11084.00
2018-09-11T09:59:55.500Z,10824.00
2018-09-11T10:00:55.423Z,10584.00
2018-09-11T10:01:55.348Z,10748.00
2018-09-11T10:02:55.272Z,11128.00
2018-09-11T10:03:55.197Z,11132.00
2018-09-11T10:04:55.148Z,10604.00
2018-09-11T10:05:55.047Z,9628.00
2018-09-11T10:06:54.972Z,8688.00
2018-09-11T10:07:54.897Z,8452.00
2018-09-11T10:08:54.836Z,8340.00
2018-09-11T10:09:54.763Z,8364.00
2018-09-11T10:10:54.673Z,8800.00
2018-09-11T10:11:54.743Z,8888.00
2018-09-11T10:12:54.539Z,8784.00
2018-09-11T10:13:54.461Z,8616.00
2018-09-11T10:14:54.388Z,8248.00
2018-09-11T10:15:54.313Z,7896.00
2018-09-11T10:16:54.237Z,7320.00
2018-09-11T10:17:54.161Z,6932.00
2018-09-11T10:18:54.088Z,7160.00
2018-09-11T10:19:54.017Z,7392.00
2018-09-11T10:20:53.937Z,6780.00
2018-09-11T10:21:53.863Z,7348.00
2018-09-11T10:22:53.788Z,7240.00
2018-09-11T10:23:53.714Z,6860.00
2018-09-11T10:24:53.638Z,7028.00
2018-09-11T10:25:53.563Z,7152.00
2018-09-11T10:26:53.488Z,7260.00
2018-09-11T10:27:53.425Z,7668.00
2018-09-11T10:28:53.349Z,7452.00
2018-09-11T10:29:53.275Z,9072.00
2018-09-11T10:30:53.199Z,8740.00
2018-09-11T10:31:53.125Z,9092.00
2018-09-11T10:32:53.050Z,9164.00
2018-09-11T10:33:53.056Z,9564.00
2018-09-11T10:34:52.914Z,9688.00
2018-09-11T10:35:52.826Z,9808.00
2018-09-11T10:36:52.765Z,9848.00
2018-09-11T10:37:52.689Z,9996.00
2018-09-11T10:38:52.614Z,9476.00
2018-09-11T10:39:52.539Z,9168.00
2018-09-11T10:40:52.476Z,9320.00
2018-09-11T10:41:52.415Z,8816.00
2018-09-11T10:42:52.326Z,9744.00
2018-09-11T10:43:52.251Z,9388.00
2018-09-11T10:44:52.254Z,10212.00
2018-09-11T10:45:52.116Z,10976.00
2018-09-11T10:46:52.040Z,10160.00
2018-09-11T10:47:51.976Z,10264.00
2018-09-11T10:48:51.968Z,10392.00
2018-09-11T10:49:51.828Z,9416.00
2018-09-11T10:50:51.766Z,8448.00
2018-09-11T10:51:51.757Z,8064.00
2018-09-11T10:52:51.616Z,6784.00
2018-09-11T10:53:51.567Z,6132.00
2018-09-11T10:54:51.478Z,6000.00
2018-09-11T10:55:51.419Z,6348.00
2018-09-11T10:56:51.344Z,6584.00
2018-09-11T10:57:51.269Z,6808.00
2018-09-11T10:58:51.203Z,6820.00
2018-09-11T10:59:51.129Z,6924.00
2018-09-11T11:00:51.054Z,7084.00
2018-09-11T11:01:50.992Z,7144.00
2018-09-11T11:02:50.917Z,7336.00
2018-09-11T11:03:50.858Z,9652.00
2018-09-11T11:04:50.779Z,11468.00
2018-09-11T11:05:50.704Z,12816.00
2018-09-11T11:06:50.643Z,10172.00
2018-09-11T11:07:50.569Z,10856.00
2018-09-11T11:08:50.493Z,9012.00
2018-09-11T11:09:50.430Z,11988.00
2018-09-11T11:10:50.356Z,13208.00
2018-09-11T11:11:50.293Z,14092.00
2018-09-11T11:12:50.218Z,14028.00
2018-09-11T11:13:50.144Z,14052.00
2018-09-11T11:14:50.080Z,12992.00
2018-09-11T11:15:50.006Z,13464.00
2018-09-11T11:16:49.943Z,13548.00
2018-09-11T11:17:49.870Z,13884.00
2018-09-11T11:18:49.794Z,14116.00
2018-09-11T11:19:49.733Z,14392.00
2018-09-11T11:20:49.656Z,13972.00
2018-09-11T11:21:49.594Z,14444.00
2018-09-11T11:22:49.519Z,14704.00
2018-09-11T11:23:49.456Z,14328.00
2018-09-11T11:24:49.394Z,14832.00
2018-09-11T11:25:49.320Z,14892.00
2018-09-11T11:26:49.269Z,14352.00
2018-09-11T11:27:49.181Z,14332.00
2018-09-11T11:28:49.106Z,12776.00
2018-09-11T11:29:49.047Z,12612.00
2018-09-11T11:30:48.972Z,13708.00
2018-09-11T11:31:48.923Z,15280.00
2018-09-11T11:32:48.833Z,15540.00
2018-09-11T11:33:48.773Z,14624.00
2018-09-11T11:34:48.697Z,14232.00
2018-09-11T11:35:48.621Z,15596.00
2018-09-11T11:36:48.611Z,14800.00
2018-09-11T11:37:48.484Z,13288.00
2018-09-11T11:38:48.422Z,14116.00
2018-09-11T11:39:48.346Z,13460.00
2018-09-11T11:40:48.283Z,12548.00
2018-09-11T11:41:48.268Z,12584.00
2018-09-11T11:42:48.172Z,12288.00
2018-09-11T11:43:48.077Z,13840.00
2018-09-11T11:44:48.009Z,16608.00
2018-09-11T11:45:47.948Z,16864.00
2018-09-11T11:46:47.859Z,16864.00
2018-09-11T11:47:47.796Z,17600.00
2018-09-11T11:48:47.723Z,16896.00
2018-09-11T11:49:47.665Z,15836.00
2018-09-11T11:50:47.584Z,15848.00
2018-09-11T11:51:47.510Z,14496.00
2018-09-11T11:52:47.447Z,13940.00
2018-09-11T11:53:47.373Z,12968.00
2018-09-11T11:54:47.353Z,12484.00
2018-09-11T11:55:47.234Z,12748.00
2018-09-11T11:56:47.173Z,12592.00
2018-09-11T11:57:47.098Z,13032.00
2018-09-11T11:58:47.385Z,12124.00
2018-09-11T11:59:46.974Z,12392.00
2018-09-11T12:00:46.885Z,12796.00
2018-09-11T12:01:46.823Z,13276.00
2018-09-11T12:02:46.748Z,14504.00
2018-09-11T12:03:46.684Z,14972.00
2018-09-11T12:04:46.615Z,14656.00
2018-09-11T12:05:46.536Z,14604.00
2018-09-11T12:06:46.473Z,13884.00
2018-09-11T12:07:46.436Z,14356.00
2018-09-11T12:08:46.340Z,13052.00
2018-09-11T12:09:46.261Z,12484.00
2018-09-11T12:10:46.188Z,11276.00
2018-09-11T12:11:46.124Z,11156.00
2018-09-11T12:12:46.050Z,11196.00
2018-09-11T12:13:45.986Z,15076.00
2018-09-11T12:14:45.911Z,15228.00
2018-09-11T12:15:45.849Z,14664.00
2018-09-11T12:16:45.818Z,13892.00
2018-09-11T12:17:45.711Z,14972.00
2018-09-11T12:18:45.638Z,14160.00
2018-09-11T12:19:45.562Z,14884.00
2018-09-11T12:20:45.501Z,14800.00
2018-09-11T12:21:45.426Z,14044.00
2018-09-11T12:22:45.362Z,13420.00
2018-09-11T12:23:45.287Z,13472.00
2018-09-11T12:24:45.225Z,14368.00
2018-09-11T12:25:45.154Z,13956.00
2018-09-11T12:26:45.118Z,14492.00